Flight Track Log - Related Links

Times and Time Zones

All times are in EDT time to prevent confusion due to time zone crossing. See the LYM752 flight status page for this flight to view local times or setup timezone preferences in your user account.


Time Position Orientation Groundspeed Altitude Reporting Facility
EDT Latitude Longitude Course Direction KTS MPH feet Rate Location/Type
Thu 09:13:34 PM 39.3200 -101.0653 286° West 115 132 7,400  Level Denver Center
Thu 09:14:36 PM 39.3725 -101.0492 13° North 213 245 8,100 677 Climbing Denver Center
Thu 09:15:38 PM 39.4258 -101.0381 North 206 237 8,800 677 Climbing Denver Center
Thu 09:16:40 PM 39.4878 -101.0222 11° North 204 235 9,500 537 Climbing Denver Center
Thu 09:17:41 PM 39.5444 -101.0081 11° North 210 242 9,900 195 Climbing Denver Center
Thu 09:18:00 PM 39.4788 -101.4285 286° West  Level Estimated
Thu 09:18:43 PM 39.6167 -101.0081 360° North 223 257 9,900  Level Denver Center
Thu 09:19:45 PM 39.6811 -101.0133 356° North 235 270 10,000 49 Climbing Denver Center
Thu 09:20:46 PM 39.7433 -101.0450 339° North 234 269 10,000 -49 Level Denver Center
Thu 09:21:48 PM 39.7708 -101.1092 299° West 220 253 9,900 -48 Descending Denver Center
Thu 09:22:50 PM 39.7947 -101.1731 296° West 212 244 9,900 98 Level Denver Center
Thu 09:23:51 PM 39.8228 -101.2519 295° West 211 243 10,100 195 Climbing Denver Center
Thu 09:24:53 PM 39.8464 -101.3239 293° West 217 250 10,300 -97 Climbing Denver Center
Thu 09:25:55 PM 39.8753 -101.3953 298° West 212 244 9,900 -242 Descending Denver Center
Thu 09:26:57 PM 39.8917 -101.4489 292° West 192 221 9,800 -49 Descending Denver Center
Thu 09:27:58 PM 39.9131 -101.5064 296° West 172 198 9,800 98 Level Denver Center
Thu 09:29:00 PM 39.9283 -101.5553 292° West 162 186 10,000 48 Climbing Denver Center
Thu 09:30:02 PM 39.9439 -101.6044 292° West 156 180 9,900 -49 Descending Denver Center
Thu 09:31:03 PM 39.9653 -101.6639 295° West 157 181 9,900  Level Denver Center
Thu 09:32:05 PM 39.9853 -101.7164 296° West 162 186 9,900  Level Denver Center
Thu 09:33:07 PM 40.0100 -101.7767 298° West 166 191 9,900  Level Denver Center
Thu 09:34:09 PM 40.0286 -101.8286 295° West 167 192 9,900 -49 Level Denver Center
Thu 09:35:10 PM 40.0494 -101.8856 296° West 162 186 9,800 -49 Descending Denver Center
Thu 09:36:12 PM 40.0692 -101.9347 298° West 161 185 9,800 48 Level Denver Center
Thu 09:37:14 PM 40.0883 -101.9861 296° West 162 186 9,900 145 Climbing Denver Center
Thu 09:38:16 PM 40.0892 -102.0506 271° West 161 185 10,100 48 Climbing Denver Center
Thu 09:39:18 PM 40.0836 -102.1031 262° West 155 178 10,000 -98 Descending Denver Center
Thu 09:40:19 PM 40.0806 -102.1700 267° West 159 183 9,900 -49 Descending Denver Center
Thu 09:41:21 PM 40.0778 -102.2236 266° West 158 182 9,900 97 Level Denver Center
Thu 09:42:23 PM 40.0742 -102.2844 266° West 155 178 10,100  Climbing Denver Center
Thu 09:43:25 PM 40.0694 -102.3350 263° West 151 174 9,900 -48 Descending Denver Center
Thu 09:44:27 PM 40.0653 -102.3897 264° West 147 169 10,000  Climbing Denver Center
Thu 09:45:29 PM 40.0617 -102.4386 265° West 145 167 9,900 -49 Descending Denver Center
Thu 09:46:30 PM 40.0542 -102.4869 259° West 141 162 9,900  Level Denver Center
Thu 09:47:32 PM 40.0497 -102.5442 264° West 140 161 9,900 48 Level Denver Center
Thu 09:48:34 PM 40.0456 -102.5911 263° West 139 160 10,000 97 Climbing Denver Center
Thu 09:49:36 PM 40.0392 -102.6478 262° West 140 161 10,100  Climbing Denver Center
Thu 09:50:38 PM 40.0375 -102.7014 268° West 143 165 10,000 -48 Descending Denver Center
Thu 09:51:40 PM 40.0344 -102.7544 266° West 145 167 10,000  Level Denver Center
Thu 09:52:41 PM 40.0269 -102.8072 260° West 147 169 10,000  Level Denver Center
Thu 09:53:43 PM 40.0197 -102.8600 260° West 148 170 10,000  Level Denver Center
Thu 09:54:45 PM 40.0156 -102.9131 264° West 147 169 10,000  Level Denver Center
Thu 09:55:47 PM 40.0111 -102.9764 265° West 146 168 10,000  Level Denver Center
Thu 09:56:49 PM 40.0083 -103.0278 266° West 146 168 10,000  Level Denver Center
Thu 09:57:51 PM 40.0031 -103.0808 263° West 146 168 10,000  Level Denver Center
Thu 09:58:52 PM 39.9986 -103.1317 264° West 145 167 10,000 -49 Level Denver Center
Thu 09:59:54 PM 39.9936 -103.1850 263° West 146 168 9,900 48 Descending Denver Center
Thu 10:00:56 PM 39.9889 -103.2386 263° West 148 170 10,100 48 Climbing Denver Center
Thu 10:01:58 PM 39.9833 -103.3072 264° West 154 177 10,000 -48 Descending Denver Center
Thu 10:03:00 PM 39.9794 -103.3608 265° West 153 176 10,000  Level Denver Center
Thu 10:04:02 PM 39.9742 -103.4150 263° West 151 174 10,000  Level Denver Center
Thu 10:05:03 PM 39.9714 -103.4708 266° West 152 175 10,000  Level Denver Center
Thu 10:06:05 PM 39.9672 -103.5283 265° West 157 181 10,000 -48 Level Denver Center
Thu 10:07:07 PM 39.9611 -103.5836 262° West 156 180 9,900  Descending Denver Center
Thu 10:08:09 PM 39.9558 -103.6394 263° West 156 180 10,000 48 Climbing Denver Center
Thu 10:09:11 PM 39.9458 -103.7050 259° West 155 178 10,000  Level Denver Center
Thu 10:10:13 PM 39.9328 -103.7619 253° West 166 191 10,000  Level Denver Center
Thu 10:11:14 PM 39.9181 -103.8258 253° West 172 198 10,000  Level Denver Center
Thu 10:12:16 PM 39.9050 -103.8856 254° West 171 197 10,000 -194 Level Denver Center
Thu 10:13:18 PM 39.8925 -103.9519 256° West 175 201 9,600 -435 Descending Denver Center
Thu 10:14:20 PM 39.8783 -104.0186 255° West 191 220 9,100 -145 Descending Denver Center
Thu 10:15:22 PM 39.8708 -104.0869 262° West 192 221 9,300 -49 Climbing Denver Center
Thu 10:16:23 PM 39.8722 -104.1556 272° West 179 206 9,000 -244 Descending Denver Center
Thu 10:17:25 PM 39.8761 -104.2219 274° West 183 211 8,800 -194 Descending Denver Center
Thu 10:18:27 PM 39.8742 -104.2911 268° West 190 219 8,600 -242 Descending Denver Center
Thu 10:19:29 PM 39.8767 -104.3583 273° West 176 203 8,300 -194 Descending Denver Center
Thu 10:20:31 PM 39.8753 -104.4208 268° West 174 200 8,200 -341 Descending Denver Center
Thu 10:21:32 PM 39.8758 -104.4881 271° West 168 193 7,600 -683 Descending Denver Center
Thu 10:22:34 PM 39.8764 -104.5411 271° West 151 174 6,800 -774 Descending Denver Center
Thu 10:23:36 PM 39.8767 -104.5883 270° West 135 155 6,000 -726 Descending Denver Center
Thu 10:24:38 PM 39.8775 -104.6336 271° West 129 148 5,300 -677 Descending Denver Center
Thu 10:26:00 PM 39.8500 -104.6667 263° West  Level FlightAware Approximate
Thu 10:33:00 PM 39.8617 -104.6732 263° West  Level Estimated
Thu 10:34:00 PM 39.8617 -104.6732 263° West  Level Estimated
Thu 10:35:00 PM 39.8617 -104.6732 263° West  Level Estimated

Login

Don't have an account? Register now (free) for customized features, flight alerts, and more!